AAL1900 KMIA-MBPV
Flight info
| Callsign | AAL1900 |
|---|---|
| Flight time | 1h 13m |
| Altitude | 37000 |
| Route | KLADA2 BITAC DCT SOLEI |
| Aircraft | B738/M-SDE2E3FGHIRWXY/LB1 |
Departure
| Time | 2026-04-25 12:27 |
|---|---|
| Airport | Miami International Airport (KMIA) |
Arrival
| Time | 2026-04-25 13:40 |
|---|---|
| Airport | Providenciales International Airport (MBPV) |
| Time | Latitude | Longitude | Altitude | Speed | Heading |
|---|---|---|---|---|---|
| 2026-04-25 12:07 | 25.79726 | -80.28405 | 15 ft | 0 kts | 338° |
| 2026-04-25 12:16 | 25.79718 | -80.28402 | 14 ft | 4 kts | 338° |
| 2026-04-25 12:16 | 25.79698 | -80.28393 | 14 ft | 3 kts | 338° |
| 2026-04-25 12:16 | 25.79677 | -80.28379 | 14 ft | 4 kts | 298° |
| 2026-04-25 12:17 | 25.79673 | -80.28355 | 14 ft | 4 kts | 267° |
| 2026-04-25 12:17 | 25.79673 | -80.28337 | 14 ft | 0 kts | 267° |
| 2026-04-25 12:19 | 25.79673 | -80.28339 | 14 ft | 1 kts | 267° |
| 2026-04-25 12:20 | 25.79673 | -80.28353 | 14 ft | 3 kts | 267° |
| 2026-04-25 12:20 | 25.79671 | -80.28387 | 14 ft | 6 kts | 267° |
| 2026-04-25 12:20 | 25.79669 | -80.28439 | 14 ft | 8 kts | 267° |
| 2026-04-25 12:20 | 25.79664 | -80.28509 | 14 ft | 10 kts | 261° |
| 2026-04-25 12:21 | 25.79651 | -80.28593 | 14 ft | 12 kts | 264° |
| 2026-04-25 12:21 | 25.79644 | -80.28691 | 14 ft | 14 kts | 265° |
| 2026-04-25 12:21 | 25.79646 | -80.28786 | 14 ft | 11 kts | 292° |
| 2026-04-25 12:21 | 25.79718 | -80.28816 | 15 ft | 12 kts | 356° |
| 2026-04-25 12:22 | 25.79810 | -80.28821 | 16 ft | 14 kts | 358° |
| 2026-04-25 12:22 | 25.79912 | -80.28826 | 14 ft | 15 kts | 358° |
| 2026-04-25 12:22 | 25.79995 | -80.28841 | 15 ft | 11 kts | 323° |
| 2026-04-25 12:22 | 25.80011 | -80.28923 | 15 ft | 12 kts | 268° |
| 2026-04-25 12:23 | 25.80007 | -80.29023 | 15 ft | 14 kts | 267° |
| 2026-04-25 12:23 | 25.80002 | -80.29135 | 15 ft | 15 kts | 266° |
| 2026-04-25 12:23 | 25.79997 | -80.29258 | 15 ft | 17 kts | 268° |
| 2026-04-25 12:23 | 25.79992 | -80.29396 | 14 ft | 19 kts | 267° |
| 2026-04-25 12:24 | 25.79985 | -80.29548 | 13 ft | 20 kts | 267° |
| 2026-04-25 12:24 | 25.79978 | -80.29706 | 13 ft | 21 kts | 268° |
| 2026-04-25 12:24 | 25.79972 | -80.29863 | 13 ft | 20 kts | 267° |
| 2026-04-25 12:24 | 25.79981 | -80.29990 | 12 ft | 16 kts | 283° |
| 2026-04-25 12:25 | 25.80015 | -80.30112 | 14 ft | 15 kts | 301° |
| 2026-04-25 12:25 | 25.80059 | -80.30121 | 14 ft | 7 kts | 35° |
| 2026-04-25 12:25 | 25.80073 | -80.30079 | 13 ft | 0 kts | 85° |
| 2026-04-25 12:26 | 25.80083 | -80.29899 | 12 ft | 59 kts | 88° |
| 2026-04-25 12:26 | 25.80111 | -80.29175 | 16 ft | 126 kts | 88° |
| 2026-04-25 12:26 | 25.80162 | -80.28012 | 196 ft | 166 kts | 86° |
| 2026-04-25 12:27 | 25.80261 | -80.26638 | 617 ft | 192 kts | 85° |
| 2026-04-25 12:27 | 25.80192 | -80.25095 | 1118 ft | 205 kts | 105° |
| 2026-04-25 12:27 | 25.79554 | -80.23676 | 1799 ft | 204 kts | 121° |
| 2026-04-25 12:27 | 25.78851 | -80.22350 | 2573 ft | 202 kts | 118° |
| 2026-04-25 12:28 | 25.78144 | -80.20885 | 2730 ft | 229 kts | 117° |
| 2026-04-25 12:28 | 25.77376 | -80.19226 | 3002 ft | 253 kts | 116° |
| 2026-04-25 12:28 | 25.76557 | -80.17459 | 3678 ft | 261 kts | 117° |
| 2026-04-25 12:28 | 25.75678 | -80.15686 | 4488 ft | 263 kts | 117° |
| 2026-04-25 12:29 | 25.74788 | -80.13908 | 5267 ft | 266 kts | 118° |
| 2026-04-25 12:29 | 25.73882 | -80.12092 | 5933 ft | 272 kts | 118° |
| 2026-04-25 12:29 | 25.73007 | -80.10206 | 6601 ft | 277 kts | 112° |
| 2026-04-25 12:29 | 25.72309 | -80.08193 | 7240 ft | 284 kts | 109° |
| 2026-04-25 12:30 | 25.71646 | -80.06108 | 7866 ft | 290 kts | 109° |
| 2026-04-25 12:30 | 25.70979 | -80.04003 | 8481 ft | 296 kts | 109° |
| 2026-04-25 12:30 | 25.70288 | -80.01842 | 9225 ft | 299 kts | 110° |
| 2026-04-25 12:30 | 25.69579 | -79.99654 | 9878 ft | 305 kts | 110° |
| 2026-04-25 12:31 | 25.68848 | -79.97414 | 10336 ft | 317 kts | 110° |
| 2026-04-25 12:31 | 25.68062 | -79.95032 | 10470 ft | 340 kts | 110° |
| 2026-04-25 12:31 | 25.67224 | -79.92497 | 10669 ft | 360 kts | 110° |
| 2026-04-25 12:31 | 25.66350 | -79.89861 | 11132 ft | 368 kts | 110° |
| 2026-04-25 12:32 | 25.65461 | -79.87183 | 11732 ft | 372 kts | 110° |
| 2026-04-25 12:32 | 25.64562 | -79.84480 | 12382 ft | 376 kts | 110° |
| 2026-04-25 12:32 | 25.63653 | -79.81751 | 13013 ft | 380 kts | 110° |
| 2026-04-25 12:32 | 25.62732 | -79.78989 | 13640 ft | 385 kts | 110° |
| 2026-04-25 12:33 | 25.61800 | -79.76195 | 14217 ft | 389 kts | 110° |
| 2026-04-25 12:33 | 25.60854 | -79.73363 | 14792 ft | 394 kts | 110° |
| 2026-04-25 12:33 | 25.59900 | -79.70504 | 15400 ft | 398 kts | 110° |
| 2026-04-25 12:33 | 25.58910 | -79.67629 | 16008 ft | 401 kts | 111° |
| 2026-04-25 12:34 | 25.57868 | -79.64745 | 16571 ft | 406 kts | 112° |
| 2026-04-25 12:34 | 25.56796 | -79.61831 | 17136 ft | 410 kts | 112° |
| 2026-04-25 12:34 | 25.55709 | -79.58891 | 17725 ft | 414 kts | 112° |
| 2026-04-25 12:34 | 25.55339 | -79.57892 | 17920 ft | 416 kts | 112° |
| 2026-04-25 12:35 | 25.53508 | -79.52925 | 18796 ft | 422 kts | 112° |
| 2026-04-25 12:35 | 25.52397 | -79.49905 | 19308 ft | 425 kts | 112° |
| 2026-04-25 12:35 | 25.51279 | -79.46860 | 19815 ft | 429 kts | 112° |
| 2026-04-25 12:35 | 25.50150 | -79.43786 | 20315 ft | 433 kts | 112° |
| 2026-04-25 12:36 | 25.49002 | -79.40693 | 20836 ft | 436 kts | 112° |
| 2026-04-25 12:36 | 25.47851 | -79.37575 | 21315 ft | 440 kts | 112° |
| 2026-04-25 12:36 | 25.46694 | -79.34430 | 21781 ft | 443 kts | 112° |
| 2026-04-25 12:36 | 25.45529 | -79.31257 | 22260 ft | 447 kts | 112° |
| 2026-04-25 12:37 | 25.44371 | -79.28106 | 22731 ft | 450 kts | 112° |
| 2026-04-25 12:37 | 25.43174 | -79.24849 | 23202 ft | 453 kts | 113° |
| 2026-04-25 12:37 | 25.41997 | -79.21657 | 23627 ft | 456 kts | 113° |
| 2026-04-25 12:37 | 25.40795 | -79.18399 | 23987 ft | 459 kts | 113° |
| 2026-04-25 12:38 | 25.39581 | -79.15113 | 24324 ft | 463 kts | 113° |
| 2026-04-25 12:38 | 25.38358 | -79.11802 | 24659 ft | 467 kts | 113° |
| 2026-04-25 12:38 | 25.37124 | -79.08464 | 24991 ft | 471 kts | 113° |
| 2026-04-25 12:38 | 25.35881 | -79.05104 | 25328 ft | 474 kts | 113° |
| 2026-04-25 12:39 | 25.34626 | -79.01718 | 25664 ft | 477 kts | 113° |
| 2026-04-25 12:39 | 25.33365 | -78.98317 | 25994 ft | 480 kts | 113° |
| 2026-04-25 12:39 | 25.32094 | -78.94890 | 26312 ft | 484 kts | 113° |
| 2026-04-25 12:39 | 25.30812 | -78.91438 | 26609 ft | 487 kts | 113° |
| 2026-04-25 12:40 | 25.29957 | -78.89141 | 26810 ft | 489 kts | 113° |
| 2026-04-25 12:40 | 25.28657 | -78.85652 | 27110 ft | 492 kts | 113° |
| 2026-04-25 12:40 | 25.27350 | -78.82140 | 27419 ft | 496 kts | 113° |
| 2026-04-25 12:40 | 25.26036 | -78.78609 | 27707 ft | 499 kts | 113° |
| 2026-04-25 12:41 | 25.24713 | -78.75056 | 27992 ft | 502 kts | 113° |
| 2026-04-25 12:41 | 25.23380 | -78.71481 | 28269 ft | 505 kts | 113° |
| 2026-04-25 12:41 | 25.22037 | -78.67883 | 28547 ft | 508 kts | 113° |
| 2026-04-25 12:41 | 25.20688 | -78.64272 | 28837 ft | 510 kts | 113° |
| 2026-04-25 12:42 | 25.19330 | -78.60643 | 29087 ft | 513 kts | 113° |
| 2026-04-25 12:42 | 25.18424 | -78.58224 | 29231 ft | 516 kts | 113° |
| 2026-04-25 12:42 | 25.16538 | -78.53336 | 29530 ft | 520 kts | 115° |
| 2026-04-25 12:42 | 25.15048 | -78.49694 | 29791 ft | 522 kts | 116° |
| 2026-04-25 12:43 | 25.13523 | -78.46045 | 30040 ft | 524 kts | 116° |
| 2026-04-25 12:43 | 25.11987 | -78.42390 | 30259 ft | 527 kts | 116° |
| 2026-04-25 12:43 | 25.08927 | -78.35038 | 30889 ft | 526 kts | 115° |
| 2026-04-25 12:44 | 25.07417 | -78.31378 | 31293 ft | 523 kts | 115° |
| 2026-04-25 12:44 | 25.05917 | -78.27735 | 31657 ft | 521 kts | 115° |
| 2026-04-25 12:44 | 25.02921 | -78.20457 | 32259 ft | 521 kts | 115° |
| 2026-04-25 12:45 | 25.01423 | -78.16821 | 32571 ft | 520 kts | 115° |
| 2026-04-25 12:45 | 24.99927 | -78.13197 | 32899 ft | 519 kts | 115° |
| 2026-04-25 12:45 | 24.96954 | -78.06018 | 33512 ft | 518 kts | 115° |
| 2026-04-25 12:46 | 24.95461 | -78.02414 | 33829 ft | 517 kts | 115° |
| 2026-04-25 12:46 | 24.93971 | -77.98821 | 34106 ft | 516 kts | 115° |
| 2026-04-25 12:46 | 24.92478 | -77.95228 | 34344 ft | 516 kts | 115° |
| 2026-04-25 12:46 | 24.90985 | -77.91637 | 34603 ft | 514 kts | 115° |
| 2026-04-25 12:47 | 24.89499 | -77.88060 | 34868 ft | 513 kts | 115° |
| 2026-04-25 12:47 | 24.88012 | -77.84486 | 35084 ft | 513 kts | 115° |
| 2026-04-25 12:47 | 24.86524 | -77.80913 | 35270 ft | 514 kts | 116° |
| 2026-04-25 12:47 | 24.85033 | -77.77334 | 35487 ft | 514 kts | 116° |
| 2026-04-25 12:48 | 24.83544 | -77.73762 | 35716 ft | 513 kts | 116° |
| 2026-04-25 12:48 | 24.82052 | -77.70188 | 35925 ft | 513 kts | 116° |
| 2026-04-25 12:48 | 24.80560 | -77.66615 | 36043 ft | 515 kts | 116° |
| 2026-04-25 12:48 | 24.79058 | -77.63027 | 36166 ft | 517 kts | 116° |
| 2026-04-25 12:49 | 24.77557 | -77.59433 | 36381 ft | 516 kts | 116° |
| 2026-04-25 12:49 | 24.76059 | -77.55852 | 36667 ft | 514 kts | 116° |
| 2026-04-25 12:49 | 24.74500 | -77.52326 | 36929 ft | 511 kts | 121° |
| 2026-04-25 12:49 | 24.72654 | -77.48985 | 36967 ft | 513 kts | 126° |
| 2026-04-25 12:50 | 24.68539 | -77.42572 | 36963 ft | 513 kts | 129° |
| 2026-04-25 12:50 | 24.64377 | -77.36237 | 36960 ft | 510 kts | 128° |
| 2026-04-25 12:51 | 24.60325 | -77.29865 | 36965 ft | 507 kts | 127° |
| 2026-04-25 12:51 | 24.56344 | -77.23481 | 36965 ft | 506 kts | 127° |
| 2026-04-25 12:52 | 24.52386 | -77.17108 | 36971 ft | 505 kts | 127° |
| 2026-04-25 12:52 | 24.48423 | -77.10746 | 36968 ft | 504 kts | 127° |
| 2026-04-25 12:53 | 24.44452 | -77.04394 | 36933 ft | 505 kts | 127° |
| 2026-04-25 12:53 | 24.40479 | -76.98045 | 36959 ft | 505 kts | 127° |
| 2026-04-25 12:54 | 24.36483 | -76.91671 | 36983 ft | 508 kts | 127° |
| 2026-04-25 12:54 | 24.32462 | -76.85263 | 36967 ft | 512 kts | 127° |
| 2026-04-25 12:55 | 24.29103 | -76.79915 | 36969 ft | 514 kts | 127° |
| 2026-04-25 12:55 | 24.24353 | -76.72363 | 36971 ft | 516 kts | 127° |
| 2026-04-25 12:56 | 24.20274 | -76.65889 | 36968 ft | 517 kts | 127° |
| 2026-04-25 12:56 | 24.16189 | -76.59410 | 36955 ft | 517 kts | 127° |
| 2026-04-25 12:57 | 24.12107 | -76.52943 | 36961 ft | 516 kts | 127° |
| 2026-04-25 12:57 | 24.08064 | -76.46541 | 36966 ft | 514 kts | 128° |
| 2026-04-25 12:58 | 24.03998 | -76.40124 | 36951 ft | 512 kts | 128° |
| 2026-04-25 12:58 | 23.99949 | -76.33741 | 36966 ft | 510 kts | 128° |
| 2026-04-25 12:59 | 23.95915 | -76.27386 | 36961 ft | 508 kts | 128° |
| 2026-04-25 12:59 | 23.91893 | -76.21057 | 36966 ft | 506 kts | 128° |
| 2026-04-25 13:00 | 23.88556 | -76.15811 | 36959 ft | 506 kts | 128° |
| 2026-04-25 13:00 | 23.83863 | -76.08446 | 36976 ft | 505 kts | 128° |
| 2026-04-25 13:01 | 23.79851 | -76.02160 | 36962 ft | 504 kts | 128° |
| 2026-04-25 13:01 | 23.75838 | -75.95883 | 36969 ft | 504 kts | 128° |
| 2026-04-25 13:02 | 23.71823 | -75.89604 | 36950 ft | 505 kts | 128° |
| 2026-04-25 13:02 | 23.67798 | -75.83319 | 36963 ft | 506 kts | 128° |
| 2026-04-25 13:03 | 23.63783 | -75.77062 | 36976 ft | 507 kts | 128° |
| 2026-04-25 13:03 | 23.59700 | -75.70704 | 36970 ft | 510 kts | 128° |
| 2026-04-25 13:04 | 23.55627 | -75.64362 | 36964 ft | 511 kts | 128° |
| 2026-04-25 13:04 | 23.51570 | -75.58049 | 36970 ft | 512 kts | 128° |
| 2026-04-25 13:05 | 23.47469 | -75.51690 | 36964 ft | 513 kts | 128° |
| 2026-04-25 13:05 | 23.43363 | -75.45331 | 36962 ft | 513 kts | 128° |
| 2026-04-25 13:06 | 23.39259 | -75.38977 | 36968 ft | 513 kts | 129° |
| 2026-04-25 13:06 | 23.35156 | -75.32635 | 36950 ft | 511 kts | 129° |
| 2026-04-25 13:07 | 23.31065 | -75.26317 | 36960 ft | 510 kts | 129° |
| 2026-04-25 13:07 | 23.26975 | -75.20009 | 36966 ft | 510 kts | 129° |
| 2026-04-25 13:08 | 23.22887 | -75.13711 | 36961 ft | 509 kts | 129° |
| 2026-04-25 13:08 | 23.18802 | -75.07426 | 36964 ft | 509 kts | 129° |
| 2026-04-25 13:09 | 23.14717 | -75.01147 | 36966 ft | 508 kts | 129° |
| 2026-04-25 13:09 | 23.10634 | -74.94885 | 36961 ft | 508 kts | 129° |
| 2026-04-25 13:10 | 23.06558 | -74.88630 | 36966 ft | 507 kts | 129° |
| 2026-04-25 13:10 | 23.02504 | -74.82425 | 36964 ft | 507 kts | 129° |
| 2026-04-25 13:11 | 22.98420 | -74.76187 | 36941 ft | 506 kts | 129° |
| 2026-04-25 13:11 | 22.94342 | -74.69958 | 36952 ft | 507 kts | 129° |
| 2026-04-25 13:12 | 22.92295 | -74.66834 | 36800 ft | 510 kts | 129° |
| 2026-04-25 13:12 | 22.90222 | -74.63675 | 36227 ft | 515 kts | 129° |
| 2026-04-25 13:12 | 22.88157 | -74.60526 | 35686 ft | 512 kts | 129° |
| 2026-04-25 13:12 | 22.86784 | -74.58435 | 35263 ft | 513 kts | 129° |
| 2026-04-25 13:13 | 22.84012 | -74.54216 | 34392 ft | 515 kts | 129° |
| 2026-04-25 13:13 | 22.81927 | -74.51041 | 33678 ft | 517 kts | 129° |
| 2026-04-25 13:13 | 22.79838 | -74.47863 | 32938 ft | 519 kts | 129° |
| 2026-04-25 13:13 | 22.77741 | -74.44678 | 32224 ft | 519 kts | 129° |
| 2026-04-25 13:14 | 22.75645 | -74.41497 | 31596 ft | 517 kts | 129° |
| 2026-04-25 13:14 | 22.73567 | -74.38340 | 31120 ft | 512 kts | 129° |
| 2026-04-25 13:14 | 22.71504 | -74.35208 | 30616 ft | 509 kts | 129° |
| 2026-04-25 13:14 | 22.69457 | -74.32104 | 30131 ft | 504 kts | 129° |
| 2026-04-25 13:15 | 22.67425 | -74.29024 | 29557 ft | 501 kts | 129° |
| 2026-04-25 13:15 | 22.65410 | -74.25972 | 29013 ft | 496 kts | 129° |
| 2026-04-25 13:15 | 22.63415 | -74.22952 | 28470 ft | 490 kts | 129° |
| 2026-04-25 13:15 | 22.61443 | -74.19969 | 27994 ft | 485 kts | 129° |
| 2026-04-25 13:16 | 22.59489 | -74.17016 | 27501 ft | 480 kts | 129° |
| 2026-04-25 13:16 | 22.57555 | -74.14094 | 26998 ft | 476 kts | 129° |
| 2026-04-25 13:16 | 22.55635 | -74.11198 | 26508 ft | 472 kts | 129° |
| 2026-04-25 13:16 | 22.53757 | -74.08365 | 26036 ft | 468 kts | 129° |
| 2026-04-25 13:17 | 22.51870 | -74.05519 | 25553 ft | 464 kts | 129° |
| 2026-04-25 13:17 | 22.49972 | -74.02660 | 25071 ft | 460 kts | 129° |
| 2026-04-25 13:17 | 22.48136 | -73.99895 | 24575 ft | 458 kts | 129° |
| 2026-04-25 13:17 | 22.46260 | -73.97071 | 24103 ft | 454 kts | 129° |
| 2026-04-25 13:18 | 22.44444 | -73.94340 | 23615 ft | 452 kts | 129° |
| 2026-04-25 13:18 | 22.42616 | -73.91593 | 23070 ft | 449 kts | 128° |
| 2026-04-25 13:18 | 22.40803 | -73.88869 | 22561 ft | 445 kts | 128° |
| 2026-04-25 13:18 | 22.39009 | -73.86171 | 22079 ft | 440 kts | 128° |
| 2026-04-25 13:19 | 22.37230 | -73.83501 | 21588 ft | 436 kts | 128° |
| 2026-04-25 13:19 | 22.35470 | -73.80854 | 21133 ft | 431 kts | 128° |
| 2026-04-25 13:19 | 22.33726 | -73.78234 | 20674 ft | 428 kts | 128° |
| 2026-04-25 13:19 | 22.33139 | -73.77354 | 20520 ft | 426 kts | 128° |
| 2026-04-25 13:20 | 22.30277 | -73.73071 | 19775 ft | 420 kts | 128° |
| 2026-04-25 13:20 | 22.28577 | -73.70520 | 19319 ft | 417 kts | 128° |
| 2026-04-25 13:20 | 22.26889 | -73.67994 | 18859 ft | 413 kts | 128° |
| 2026-04-25 13:20 | 22.25212 | -73.65485 | 18405 ft | 411 kts | 128° |
| 2026-04-25 13:21 | 22.23545 | -73.62990 | 17911 ft | 408 kts | 128° |
| 2026-04-25 13:21 | 22.21895 | -73.60520 | 17440 ft | 404 kts | 128° |
| 2026-04-25 13:21 | 22.20259 | -73.58076 | 16992 ft | 400 kts | 128° |
| 2026-04-25 13:21 | 22.18639 | -73.55656 | 16548 ft | 396 kts | 128° |
| 2026-04-25 13:22 | 22.17034 | -73.53258 | 16119 ft | 392 kts | 128° |
| 2026-04-25 13:22 | 22.15447 | -73.50888 | 15701 ft | 388 kts | 128° |
| 2026-04-25 13:22 | 22.13874 | -73.48539 | 15275 ft | 385 kts | 128° |
| 2026-04-25 13:23 | 22.10785 | -73.43932 | 14449 ft | 378 kts | 128° |
| 2026-04-25 13:23 | 22.09250 | -73.41645 | 14042 ft | 375 kts | 128° |
| 2026-04-25 13:23 | 22.07724 | -73.39372 | 13614 ft | 373 kts | 128° |
| 2026-04-25 13:23 | 22.06211 | -73.37120 | 13160 ft | 370 kts | 128° |
| 2026-04-25 13:24 | 22.04708 | -73.34885 | 12729 ft | 366 kts | 127° |
| 2026-04-25 13:24 | 22.03222 | -73.32675 | 12333 ft | 362 kts | 127° |
| 2026-04-25 13:24 | 22.01751 | -73.30489 | 11928 ft | 359 kts | 127° |
| 2026-04-25 13:24 | 22.00295 | -73.28324 | 11534 ft | 355 kts | 127° |
| 2026-04-25 13:25 | 21.98852 | -73.26179 | 11141 ft | 352 kts | 127° |
| 2026-04-25 13:25 | 21.97420 | -73.24052 | 10750 ft | 349 kts | 127° |
| 2026-04-25 13:25 | 21.96014 | -73.21963 | 10608 ft | 338 kts | 127° |
| 2026-04-25 13:25 | 21.94671 | -73.19969 | 10460 ft | 329 kts | 127° |
| 2026-04-25 13:26 | 21.93329 | -73.17978 | 10341 ft | 319 kts | 127° |
| 2026-04-25 13:26 | 21.92047 | -73.16075 | 10196 ft | 310 kts | 127° |
| 2026-04-25 13:26 | 21.90798 | -73.14223 | 10068 ft | 301 kts | 127° |
| 2026-04-25 13:26 | 21.89585 | -73.12423 | 9942 ft | 293 kts | 127° |
| 2026-04-25 13:27 | 21.88391 | -73.10655 | 9662 ft | 292 kts | 128° |
| 2026-04-25 13:27 | 21.87200 | -73.08896 | 9376 ft | 290 kts | 128° |
| 2026-04-25 13:27 | 21.86021 | -73.07148 | 9118 ft | 287 kts | 128° |
| 2026-04-25 13:27 | 21.84849 | -73.05414 | 8853 ft | 285 kts | 128° |
| 2026-04-25 13:28 | 21.83691 | -73.03699 | 8601 ft | 282 kts | 128° |
| 2026-04-25 13:28 | 21.83318 | -73.03148 | 8512 ft | 281 kts | 128° |
| 2026-04-25 13:28 | 21.81689 | -73.00125 | 8045 ft | 282 kts | 100° |
| 2026-04-25 13:28 | 21.81578 | -72.98025 | 7863 ft | 282 kts | 92° |
| 2026-04-25 13:29 | 21.81478 | -72.95905 | 7627 ft | 285 kts | 94° |
| 2026-04-25 13:29 | 21.81352 | -72.93774 | 7379 ft | 285 kts | 95° |
| 2026-04-25 13:29 | 21.81221 | -72.91648 | 7129 ft | 284 kts | 95° |
| 2026-04-25 13:30 | 21.80961 | -72.87468 | 6674 ft | 280 kts | 95° |
| 2026-04-25 13:30 | 21.80830 | -72.85385 | 6435 ft | 278 kts | 95° |
| 2026-04-25 13:30 | 21.80701 | -72.83332 | 6278 ft | 272 kts | 95° |
| 2026-04-25 13:31 | 21.80446 | -72.79300 | 5808 ft | 267 kts | 95° |
| 2026-04-25 13:31 | 21.80321 | -72.77311 | 5536 ft | 266 kts | 95° |
| 2026-04-25 13:31 | 21.80196 | -72.75332 | 5278 ft | 264 kts | 95° |
| 2026-04-25 13:31 | 21.80073 | -72.73391 | 5044 ft | 257 kts | 95° |
| 2026-04-25 13:32 | 21.79994 | -72.72132 | 4868 ft | 252 kts | 95° |
| 2026-04-25 13:32 | 21.79876 | -72.70286 | 4611 ft | 243 kts | 95° |
| 2026-04-25 13:32 | 21.79762 | -72.68500 | 4340 ft | 236 kts | 96° |
| 2026-04-25 13:32 | 21.79650 | -72.66753 | 4103 ft | 233 kts | 95° |
| 2026-04-25 13:33 | 21.79539 | -72.65013 | 3880 ft | 232 kts | 95° |
| 2026-04-25 13:33 | 21.79428 | -72.63281 | 3645 ft | 232 kts | 95° |
| 2026-04-25 13:33 | 21.79316 | -72.61565 | 3508 ft | 226 kts | 96° |
| 2026-04-25 13:33 | 21.79243 | -72.60431 | 3429 ft | 225 kts | 95° |
| 2026-04-25 13:34 | 21.79100 | -72.58217 | 3302 ft | 220 kts | 95° |
| 2026-04-25 13:34 | 21.78997 | -72.56606 | 3188 ft | 211 kts | 96° |
| 2026-04-25 13:34 | 21.78852 | -72.55045 | 3088 ft | 208 kts | 97° |
| 2026-04-25 13:34 | 21.78733 | -72.53488 | 2967 ft | 211 kts | 95° |
| 2026-04-25 13:35 | 21.78636 | -72.51904 | 2771 ft | 213 kts | 95° |
| 2026-04-25 13:35 | 21.78550 | -72.50329 | 2547 ft | 208 kts | 95° |
| 2026-04-25 13:35 | 21.78471 | -72.48799 | 2331 ft | 201 kts | 94° |
| 2026-04-25 13:35 | 21.78396 | -72.47320 | 2116 ft | 196 kts | 95° |
| 2026-04-25 13:36 | 21.78322 | -72.45851 | 2051 ft | 197 kts | 95° |
| 2026-04-25 13:36 | 21.78249 | -72.44372 | 1952 ft | 196 kts | 94° |
| 2026-04-25 13:36 | 21.78175 | -72.42928 | 1882 ft | 193 kts | 94° |
| 2026-04-25 13:36 | 21.78102 | -72.41460 | 1780 ft | 198 kts | 94° |
| 2026-04-25 13:37 | 21.78027 | -72.39982 | 1714 ft | 196 kts | 94° |
| 2026-04-25 13:37 | 21.77958 | -72.38561 | 1719 ft | 189 kts | 95° |
| 2026-04-25 13:37 | 21.77885 | -72.37140 | 1685 ft | 194 kts | 94° |
| 2026-04-25 13:37 | 21.77813 | -72.35699 | 1443 ft | 187 kts | 94° |
| 2026-04-25 13:38 | 21.77747 | -72.34359 | 1213 ft | 171 kts | 94° |
| 2026-04-25 13:38 | 21.77686 | -72.33119 | 975 ft | 160 kts | 95° |
| 2026-04-25 13:38 | 21.77623 | -72.31937 | 774 ft | 160 kts | 94° |
| 2026-04-25 13:38 | 21.77577 | -72.30741 | 578 ft | 156 kts | 92° |
| 2026-04-25 13:39 | 21.77527 | -72.29606 | 339 ft | 151 kts | 93° |
| 2026-04-25 13:39 | 21.77464 | -72.28474 | 123 ft | 149 kts | 94° |
| 2026-04-25 13:39 | 21.77399 | -72.27381 | 44 ft | 142 kts | 93° |
| 2026-04-25 13:39 | 21.77358 | -72.26581 | 43 ft | 66 kts | 93° |
| 2026-04-25 13:40 | 21.77338 | -72.26165 | 43 ft | 47 kts | 92° |
| 2026-04-25 13:40 | 21.77325 | -72.25910 | 44 ft | 19 kts | 93° |
| 2026-04-25 13:40 | 21.77333 | -72.25866 | 43 ft | 0 kts | 60° |
| 2026-04-25 13:40 | 21.77335 | -72.25860 | 43 ft | 3 kts | 69° |
| 2026-04-25 13:41 | 21.77334 | -72.25805 | 43 ft | 11 kts | 94° |
| 2026-04-25 13:41 | 21.77320 | -72.25696 | 42 ft | 18 kts | 99° |
| 2026-04-25 13:41 | 21.77338 | -72.25589 | 43 ft | 14 kts | 63° |
| 2026-04-25 13:41 | 21.77325 | -72.25541 | 43 ft | 8 kts | 184° |
| 2026-04-25 13:42 | 21.77311 | -72.25617 | 42 ft | 15 kts | 272° |
| 2026-04-25 13:42 | 21.77317 | -72.25749 | 42 ft | 20 kts | 273° |
| 2026-04-25 13:42 | 21.77325 | -72.25919 | 44 ft | 25 kts | 273° |
| 2026-04-25 13:42 | 21.77335 | -72.26122 | 43 ft | 30 kts | 273° |
| 2026-04-25 13:43 | 21.77347 | -72.26350 | 44 ft | 31 kts | 273° |
| 2026-04-25 13:43 | 21.77358 | -72.26580 | 43 ft | 31 kts | 273° |
| 2026-04-25 13:43 | 21.77369 | -72.26814 | 43 ft | 31 kts | 273° |
| 2026-04-25 13:43 | 21.77380 | -72.27023 | 44 ft | 17 kts | 277° |
| 2026-04-25 13:44 | 21.77423 | -72.27068 | 44 ft | 9 kts | 352° |
| 2026-04-25 13:44 | 21.77487 | -72.27076 | 44 ft | 7 kts | 332° |
| 2026-04-25 13:44 | 21.77510 | -72.27128 | 44 ft | 9 kts | 279° |
| 2026-04-25 13:44 | 21.77522 | -72.27169 | 44 ft | 4 kts | 325° |
| 2026-04-25 13:45 | 21.77552 | -72.27162 | 44 ft | 6 kts | 32° |
| 2026-04-25 13:45 | 21.77575 | -72.27145 | 44 ft | 2 kts | 33° |
| 2026-04-25 13:45 | 21.77576 | -72.27145 | 44 ft | 0 kts | 33° |